Time;durP1;ratioP1;P1;durP2;ratioP2;P2;SDS_P1;SDS_P2;PMS_P1;PMS_P2;Temp;Humidity;BMP_temperature;BMP_pressure;BME280_temperature;BME280_humidity;BME280_pressure;Samples;Min_cycle;Max_cycle;Signal;HPM_P1;HPM_P2
2022/07/14 00:01:52;;;;;;;1.55;0.70;;;;;;;23.25;nan;100740.31;5030708;28;20116;-67
2022/07/14 00:04:17;;;;;;;1.58;0.70;;;;;;;23.26;nan;100741.13;5030976;28;20040;-68
2022/07/14 00:06:43;;;;;;;1.77;0.70;;;;;;;23.22;nan;100743.47;5031044;28;20029;-68
2022/07/14 00:09:08;;;;;;;1.27;0.70;;;;;;;23.21;nan;100736.41;5030323;28;20471;-68
2022/07/14 00:11:34;;;;;;;1.20;0.60;;;;;;;23.18;nan;100736.06;5028672;28;20091;-68
2022/07/14 00:13:59;;;;;;;2.00;0.70;;;;;;;23.14;nan;100741.09;5029720;28;20705;-68
2022/07/14 00:16:25;;;;;;;1.58;0.80;;;;;;;23.06;nan;100744.94;5030215;28;20057;-68
2022/07/14 00:18:51;;;;;;;1.17;0.80;;;;;;;22.96;nan;100736.56;5030170;28;20441;-68
2022/07/14 00:21:17;;;;;;;4.60;0.70;;;;;;;22.87;nan;100729.81;5029636;28;20091;-68
2022/07/14 00:23:45;;;;;;;1.13;0.70;;;;;;;22.78;nan;100737.41;5030763;28;20037;-68
2022/07/14 00:26:10;;;;;;;1.80;0.90;;;;;;;22.67;nan;100730.91;5029549;28;20037;-68
2022/07/14 00:28:36;;;;;;;1.30;0.70;;;;;;;22.61;nan;100736.38;5013598;28;20041;-68
2022/07/14 00:31:05;;;;;;;1.92;0.90;;;;;;;22.53;nan;100739.41;5030310;28;20525;-67
2022/07/14 00:33:31;;;;;;;1.40;0.80;;;;;;;22.47;nan;100733.03;5029979;28;20044;-68
2022/07/14 00:35:56;;;;;;;2.78;0.90;;;;;;;;;;5028895;28;20549;-68
2022/07/14 00:38:21;;;;;;;1.02;0.75;;;;;;;22.31;nan;100733.63;5027732;28;20073;-68
2022/07/14 00:40:47;;;;;;;1.27;0.82;;;;;;;22.24;nan;100721.06;5032345;28;20041;-68
2022/07/14 00:43:12;;;;;;;1.73;0.70;;;;;;;22.20;nan;100711.78;5028432;28;20338;-68
2022/07/14 00:45:37;;;;;;;1.50;0.70;;;;;;;22.16;nan;100715.09;5028758;28;20038;-68
2022/07/14 00:48:03;;;;;;;1.00;0.70;;;;;;;22.10;nan;100713.31;5028301;28;20292;-69
2022/07/14 00:50:28;;;;;;;1.08;0.68;;;;;;;22.02;nan;100714.41;5027593;28;20041;-68
2022/07/14 00:52:53;;;;;;;0.93;0.73;;;;;;;21.92;nan;100709.53;5027301;28;20049;-70
2022/07/14 00:55:19;;;;;;;1.25;0.70;;;;;;;21.84;nan;100707.16;5032518;28;20029;-68
2022/07/14 00:57:46;;;;;;;1.33;0.77;;;;;;;21.75;nan;100721.94;5027522;28;20037;-68
2022/07/14 01:00:13;;;;;;;1.13;0.90;;;;;;;21.68;nan;100708.53;5027193;28;20030;-68
2022/07/14 01:02:40;;;;;;;1.13;0.80;;;;;;;21.66;nan;100707.09;5026217;28;20449;-68
2022/07/14 01:05:06;;;;;;;2.38;0.95;;;;;;;21.63;nan;100711.88;5029444;28;20537;-68
2022/07/14 01:07:32;;;;;;;1.67;0.90;;;;;;;21.59;nan;100707.97;5027405;28;20045;-68
2022/07/14 01:09:57;;;;;;;3.22;0.85;;;;;;;21.62;nan;100704.03;5028171;28;20037;-68
2022/07/14 01:12:23;;;;;;;1.33;0.80;;;;;;;21.63;nan;100705.69;5026790;28;20052;-69
2022/07/14 01:14:48;;;;;;;2.97;1.10;;;;;;;21.61;nan;100702.38;5027379;28;20112;-68
2022/07/14 01:17:13;;;;;;;1.63;0.90;;;;;;;21.59;nan;100701.78;5027415;28;20041;-69
2022/07/14 01:19:39;;;;;;;2.35;0.80;;;;;;;21.54;nan;100702.44;5027629;28;20045;-68
2022/07/14 01:22:05;;;;;;;1.60;0.90;;;;;;;21.52;nan;100709.06;5027285;28;20029;-69
2022/07/14 01:24:30;;;;;;;2.65;0.90;;;;;;;21.49;nan;100706.84;5026685;28;20108;-69
2022/07/14 01:26:56;;;;;;;1.27;0.90;;;;;;;21.42;nan;100710.38;5013985;28;20059;-68
2022/07/14 01:29:23;;;;;;;1.77;0.95;;;;;;;21.36;nan;100699.66;5028377;28;20043;-68
2022/07/14 01:31:49;;;;;;;1.75;0.93;;;;;;;21.30;nan;100695.97;5027009;28;20614;-69
2022/07/14 01:34:14;;;;;;;1.80;0.95;;;;;;;21.26;nan;100702.84;5026548;28;20087;-69
2022/07/14 01:36:40;;;;;;;1.35;0.70;;;;;;;21.22;nan;100698.94;5026882;28;20440;-68
2022/07/14 01:39:06;;;;;;;2.00;1.00;;;;;;;21.18;nan;100693.16;5028627;28;20025;-68
2022/07/14 01:41:33;;;;;;;1.42;1.00;;;;;;;21.12;nan;100690.53;5027111;28;20060;-69
2022/07/14 01:43:58;;;;;;;1.45;0.90;;;;;;;21.09;nan;100694.47;5028125;28;20518;-68
2022/07/14 01:46:24;;;;;;;1.50;0.90;;;;;;;21.06;nan;100688.69;5026852;28;20087;-69
2022/07/14 01:48:49;;;;;;;1.98;0.95;;;;;;;21.03;nan;100681.91;5026075;28;20072;-68
2022/07/14 01:51:14;;;;;;;1.58;0.98;;;;;;;20.97;nan;100680.91;5026714;28;20116;-68
2022/07/14 01:53:41;;;;;;;1.45;0.82;;;;;;;20.94;nan;100684.00;5027033;28;20045;-68
2022/07/14 01:56:07;;;;;;;1.45;0.90;;;;;;;20.91;nan;100683.63;5027313;28;20217;-68
2022/07/14 01:58:33;;;;;;;2.13;0.90;;;;;;;20.87;nan;100677.03;5027856;28;20041;-68
2022/07/14 02:03:44;;;;;;;1.80;1.00;;;;;;;20.75;nan;100676.88;5028001;28;20064;-68
2022/07/14 02:06:10;;;;;;;2.33;1.08;;;;;;;20.69;nan;100675.91;5027344;28;20037;-67
2022/07/14 02:08:35;;;;;;;2.05;1.13;;;;;;;20.63;nan;100674.06;5026956;28;20127;-67
2022/07/14 02:13:44;;;;;;;1.83;1.30;;;;;;;20.41;nan;100665.47;5029688;28;20064;-67
2022/07/14 02:16:10;;;;;;;1.70;1.20;;;;;;;20.33;nan;100671.06;5031034;28;20513;-68
2022/07/14 02:18:35;;;;;;;1.70;1.20;;;;;;;20.28;nan;100676.25;5031497;28;20053;-67
2022/07/14 02:21:00;;;;;;;1.98;1.23;;;;;;;20.21;nan;100676.25;5031024;28;20037;-67
2022/07/14 02:23:26;;;;;;;2.25;1.48;;;;;;;20.17;nan;100688.47;5031005;28;20444;-67
2022/07/14 02:25:51;;;;;;;2.38;1.30;;;;;;;20.12;nan;100688.28;5031489;28;20064;-67
2022/07/14 02:28:16;;;;;;;1.35;0.98;;;;;;;20.09;nan;100688.69;5017486;28;20068;-67
2022/07/14 02:30:42;;;;;;;1.83;1.20;;;;;;;20.08;nan;100676.31;5031257;28;20065;-67
2022/07/14 02:33:08;;;;;;;2.78;1.60;;;;;;;20.07;nan;100680.88;5031429;28;20025;-67
2022/07/14 02:35:33;;;;;;;2.25;1.33;;;;;;;20.12;nan;100678.38;5018654;28;20439;-68
2022/07/14 02:37:59;;;;;;;2.75;1.63;;;;;;;20.27;nan;100674.59;5030918;28;20030;-68
2022/07/14 02:40:24;;;;;;;2.10;1.45;;;;;;;20.37;nan;100672.28;5032675;28;20037;-68
2022/07/14 02:42:49;;;;;;;2.03;1.50;;;;;;;20.45;nan;100665.84;5031421;28;20041;-68
2022/07/14 02:45:15;;;;;;;2.35;1.45;;;;;;;20.48;nan;100674.31;5030857;28;20129;-68
2022/07/14 02:47:40;;;;;;;2.25;1.50;;;;;;;20.49;nan;100670.56;5040575;28;20053;-68
2022/07/14 02:50:06;;;;;;;1.63;1.13;;;;;;;20.47;nan;100674.50;5031422;28;20056;-69
2022/07/14 02:52:31;;;;;;;1.80;1.30;;;;;;;20.45;nan;100676.59;5029931;28;20409;-69
2022/07/14 02:54:56;;;;;;;1.77;1.20;;;;;;;20.43;nan;100681.38;5031531;28;20025;-68
2022/07/14 02:57:22;;;;;;;2.37;0.90;;;;;;;20.38;nan;100676.63;5030183;28;20083;-68
2022/07/14 02:59:47;;;;;;;1.75;1.05;;;;;;;20.31;nan;100670.47;5030395;28;20291;-69
2022/07/14 03:02:12;;;;;;;2.30;1.30;;;;;;;20.21;nan;100678.13;5028834;28;20513;-68
2022/07/14 03:04:38;;;;;;;1.52;1.02;;;;;;;20.08;nan;100681.69;5017504;28;20082;-68
2022/07/14 03:07:03;;;;;;;2.05;1.30;;;;;;;20.01;nan;100684.38;5030916;28;20087;-68
2022/07/14 03:09:28;;;;;;;2.15;1.10;;;;;;;19.94;nan;100695.13;5029777;28;20056;-68
2022/07/14 03:11:53;;;;;;;1.88;1.10;;;;;;;19.87;nan;100694.31;5030722;28;20053;-68
2022/07/14 03:14:19;;;;;;;1.77;0.90;;;;;;;19.81;nan;100703.22;5015643;28;20038;-68
2022/07/14 03:16:44;;;;;;;2.15;1.00;;;;;;;19.75;nan;100703.22;5029592;28;20501;-68
2022/07/14 03:19:10;;;;;;;1.85;1.15;;;;;;;19.73;nan;100704.25;5030574;28;20047;-68
2022/07/14 03:21:35;;;;;;;1.95;1.20;;;;;;;19.69;nan;100711.06;5015394;28;20041;-68
2022/07/14 03:24:00;;;;;;;2.00;1.00;;;;;;;19.63;nan;100708.34;5029521;28;20030;-68
2022/07/14 03:26:28;;;;;;;1.77;1.00;;;;;;;19.62;nan;100707.53;5028802;28;20497;-68
2022/07/14 03:28:54;;;;;;;1.98;1.10;;;;;;;19.67;nan;100701.53;5028990;28;20307;-68
2022/07/14 03:31:19;;;;;;;2.28;1.27;;;;;;;19.67;nan;100701.53;5030059;28;20034;-68
2022/07/14 03:33:44;;;;;;;1.60;1.10;;;;;;;19.66;nan;100710.59;5014028;28;20123;-68
2022/07/14 03:36:10;;;;;;;2.90;1.10;;;;;;;19.64;nan;100702.78;5029896;28;20315;-69
2022/07/14 03:38:35;;;;;;;1.40;0.80;;;;;;;19.62;nan;100709.38;5028982;28;20050;-68
2022/07/14 03:41:03;;;;;;;2.53;1.08;;;;;;;19.59;nan;100713.28;5032513;28;20098;-68
2022/07/14 03:43:29;;;;;;;1.80;1.08;;;;;;;19.56;nan;100705.66;5030646;28;20037;-69
2022/07/14 03:45:54;;;;;;;1.65;1.10;;;;;;;19.57;nan;100711.84;5029433;28;20041;-68
2022/07/14 03:48:21;;;;;;;1.80;1.15;;;;;;;19.53;nan;100711.44;5030226;28;20049;-68
2022/07/14 03:50:47;;;;;;;1.92;1.20;;;;;;;19.46;nan;100708.75;5022026;28;20033;-69
2022/07/14 03:53:12;;;;;;;1.65;1.00;;;;;;;19.46;nan;100700.69;5032804;28;20167;-68
2022/07/14 03:55:38;;;;;;;2.15;1.15;;;;;;;19.47;nan;100693.47;5031013;28;20033;-68
2022/07/14 03:58:03;;;;;;;2.43;1.40;;;;;;;19.42;nan;100696.78;5030333;28;20034;-69
2022/07/14 04:00:28;;;;;;;2.90;1.30;;;;;;;19.38;nan;100690.19;5029202;28;20764;-68
2022/07/14 04:02:54;;;;;;;2.00;1.25;;;;;;;19.41;nan;100686.28;5029163;28;20037;-68
2022/07/14 04:05:20;;;;;;;1.95;1.20;;;;;;;19.41;nan;100691.63;5031528;28;20029;-68
2022/07/14 04:07:45;;;;;;;2.35;1.30;;;;;;;19.34;nan;100691.63;5028662;28;20509;-69
2022/07/14 04:10:11;;;;;;;2.83;1.50;;;;;;;19.30;nan;100695.75;5029265;28;20117;-68
2022/07/14 04:12:36;;;;;;;2.85;1.50;;;;;;;19.30;nan;100693.06;5029334;28;20563;-69
2022/07/14 04:15:02;;;;;;;1.70;1.30;;;;;;;19.31;nan;100692.03;5028569;28;20033;-68
2022/07/14 04:17:28;;;;;;;1.77;1.30;;;;;;;19.35;nan;100687.09;5030148;28;20261;-68
2022/07/14 04:19:53;;;;;;;2.15;1.40;;;;;;;19.40;nan;100681.91;5030465;28;20037;-68
2022/07/14 04:22:18;;;;;;;2.33;1.27;;;;;;;19.46;nan;100689.16;5028992;28;20034;-68
2022/07/14 04:24:44;;;;;;;1.90;1.13;;;;;;;19.50;nan;100683.19;5028569;28;20052;-69
2022/07/14 04:27:09;;;;;;;1.25;1.00;;;;;;;19.57;nan;100680.50;5028767;28;20146;-69
2022/07/14 04:29:35;;;;;;;2.53;1.30;;;;;;;19.65;nan;100679.47;5029266;28;20045;-69
2022/07/14 04:32:00;;;;;;;2.17;1.52;;;;;;;19.71;nan;100687.53;5029850;28;20124;-69
2022/07/14 04:34:25;;;;;;;1.90;1.30;;;;;;;19.78;nan;100679.44;5028902;28;20039;-68
2022/07/14 04:36:51;;;;;;;1.95;1.40;;;;;;;19.83;nan;100681.50;5014192;28;20029;-68
2022/07/14 04:39:16;;;;;;;2.00;1.40;;;;;;;19.85;nan;100674.91;5029192;28;20381;-69
2022/07/14 04:41:41;;;;;;;1.80;1.38;;;;;;;19.88;nan;100676.38;5027765;28;20044;-69
2022/07/14 04:44:06;;;;;;;2.28;1.38;;;;;;;19.92;nan;100673.03;5029777;28;20547;-69
2022/07/14 04:46:32;;;;;;;2.30;1.30;;;;;;;20.02;nan;100656.50;5028474;28;20102;-68
2022/07/14 04:52:04;;;;;;;3.58;1.50;;;;;;;20.32;nan;100646.06;4987576;28;20529;-68
2022/07/14 04:54:33;;;;;;;2.60;1.50;;;;;;;20.47;nan;100640.41;5030544;28;20037;-69
2022/07/14 04:57:00;;;;;;;2.28;1.40;;;;;;;20.54;nan;100638.50;5027209;28;20506;-69
2022/07/14 04:59:26;;;;;;;2.05;1.20;;;;;;;20.60;nan;100631.50;5026763;28;20099;-68
2022/07/14 05:01:51;;;;;;;2.15;1.40;;;;;;;20.71;nan;100617.41;5026920;28;20041;-69
2022/07/14 05:04:16;;;;;;;2.17;1.50;;;;;;;20.81;nan;100621.44;5027699;28;20037;-69
2022/07/14 05:06:42;;;;;;;2.90;1.80;;;;;;;20.82;nan;100629.31;5028970;28;20045;-69
2022/07/14 05:09:08;;;;;;;3.00;1.73;;;;;;;20.90;nan;100630.91;5028884;28;22094;-69
2022/07/14 05:11:33;;;;;;;2.58;1.63;;;;;;;21.01;nan;100635.59;5012321;28;20421;-68
2022/07/14 05:13:58;;;;;;;2.77;1.60;;;;;;;21.19;nan;100638.34;5027812;28;20049;-69
2022/07/14 05:16:24;;;;;;;2.08;1.30;;;;;;;21.42;nan;100645.81;5028016;28;20383;-69
2022/07/14 05:18:49;;;;;;;2.00;1.20;;;;;;;21.59;nan;100645.25;5027862;28;20557;-69
2022/07/14 05:21:15;;;;;;;2.70;1.25;;;;;;;21.76;nan;100651.75;5028079;28;20032;-69
2022/07/14 05:23:41;;;;;;;2.65;1.27;;;;;;;21.88;nan;100661.75;5025579;28;20574;-69
2022/07/14 05:26:11;;;;;;;2.25;1.60;;;;;;;21.87;nan;100668.19;5026338;28;20063;-70
2022/07/14 05:28:36;;;;;;;3.03;1.58;;;;;;;21.92;nan;100677.22;5027959;28;20373;-69
2022/07/14 05:31:02;;;;;;;3.13;1.42;;;;;;;22.00;nan;100681.50;5027478;28;20443;-69
2022/07/14 05:33:27;;;;;;;2.85;1.48;;;;;;;22.08;nan;100686.59;5027563;28;20056;-69
2022/07/14 05:35:52;;;;;;;3.43;1.67;;;;;;;22.14;nan;100691.06;5027642;28;20037;-70
2022/07/14 05:38:17;;;;;;;3.00;1.60;;;;;;;22.23;nan;100692.47;5027661;28;20318;-69
2022/07/14 05:40:43;;;;;;;3.40;1.30;;;;;;;22.29;nan;100703.41;5027274;28;20046;-69
2022/07/14 05:43:08;;;;;;;2.72;1.50;;;;;;;22.26;nan;100702.81;5012149;28;20057;-69
2022/07/14 05:45:33;;;;;;;2.63;1.48;;;;;;;22.25;nan;100711.09;5029188;28;20061;-69
2022/07/14 05:47:59;;;;;;;1.73;1.23;;;;;;;22.27;nan;100709.81;5027033;28;20497;-69
2022/07/14 05:50:24;;;;;;;3.00;1.30;;;;;;;22.36;nan;100704.97;5026238;28;20069;-69
2022/07/14 05:52:49;;;;;;;2.97;1.35;;;;;;;22.47;nan;100700.69;5013957;28;20033;-69
2022/07/14 05:55:15;;;;;;;2.70;1.52;;;;;;;22.55;nan;100686.06;5030879;28;20092;-69
2022/07/14 05:57:40;;;;;;;3.25;1.73;;;;;;;22.69;nan;100684.84;5028520;28;20125;-69
2022/07/14 06:00:06;;;;;;;3.78;1.52;;;;;;;22.86;nan;100690.44;5025943;28;20444;-69
2022/07/14 06:02:31;;;;;;;4.68;1.98;;;;;;;23.01;nan;100680.06;5026720;28;20075;-69
2022/07/14 06:04:57;;;;;;;3.80;1.80;;;;;;;23.09;nan;100677.03;5026877;28;20065;-69
2022/07/14 06:07:22;;;;;;;3.33;1.50;;;;;;;23.18;nan;100677.53;5027007;28;20288;-69
2022/07/14 06:09:49;;;;;;;3.40;1.33;;;;;;;23.34;nan;100677.94;5026955;28;20818;-69
2022/07/14 06:12:15;;;;;;;7.22;1.98;;;;;;;23.46;nan;100676.88;5026476;28;20046;-69
2022/07/14 06:14:40;;;;;;;6.70;2.17;;;;;;;23.62;nan;100675.38;5027720;28;20064;-69
2022/07/14 06:17:06;;;;;;;3.67;1.90;;;;;;;23.81;nan;100672.56;5017128;28;20528;-69
2022/07/14 06:19:31;;;;;;;3.05;1.50;;;;;;;24.05;nan;100670.66;5026863;28;20316;-69
2022/07/14 06:21:56;;;;;;;1.95;1.33;;;;;;;24.35;nan;100668.59;5027055;28;20033;-69
2022/07/14 06:24:22;;;;;;;4.63;1.55;;;;;;;24.33;nan;100668.00;5027740;28;20037;-69
2022/07/14 06:26:47;;;;;;;3.10;1.70;;;;;;;24.47;nan;100665.06;5027101;28;20114;-69
2022/07/14 06:29:13;;;;;;;3.30;1.52;;;;;;;24.63;nan;100658.88;5027810;28;20284;-69
2022/07/14 06:31:38;;;;;;;3.35;1.40;;;;;;;25.00;nan;100667.41;5026961;28;20030;-69
2022/07/14 06:34:04;;;;;;;3.42;1.58;;;;;;;25.64;nan;100666.28;5036131;28;20026;-69
2022/07/14 06:36:30;;;;;;;3.13;1.30;;;;;;;25.98;nan;100663.50;5036392;28;20037;-69
2022/07/14 06:38:56;;;;;;;3.40;1.42;;;;;;;26.05;nan;100673.13;5027837;28;20209;-69
2022/07/14 06:41:22;;;;;;;2.03;1.20;;;;;;;26.11;nan;100678.59;5027965;28;20061;-69
2022/07/14 06:43:47;;;;;;;4.65;1.33;;;;;;;26.13;nan;100677.28;5029403;28;20034;-69
2022/07/14 06:46:14;;;;;;;2.90;1.40;;;;;;;26.20;nan;100682.53;5028278;28;20044;-69
2022/07/14 06:48:40;;;;;;;3.92;1.52;;;;;;;26.31;nan;100673.41;5028170;28;20038;-69
2022/07/14 06:51:06;;;;;;;2.78;1.42;;;;;;;26.37;nan;100671.59;5027150;28;20047;-69
2022/07/14 06:53:31;;;;;;;4.03;1.77;;;;;;;26.45;nan;100673.84;5029859;28;20417;-69
2022/07/14 06:55:56;;;;;;;4.45;1.67;;;;;;;26.55;nan;100663.16;5026503;28;20033;-69
2022/07/14 06:58:22;;;;;;;2.28;1.40;;;;;;;26.96;nan;100663.56;5025657;28;20486;-69
2022/07/14 07:00:47;;;;;;;2.95;1.50;;;;;;;27.37;nan;100653.06;5014554;28;20056;-70
2022/07/14 07:03:12;;;;;;;3.33;1.40;;;;;;;27.58;nan;100658.63;5029748;28;20120;-69
2022/07/14 07:08:23;;;;;;;3.33;1.80;;;;;;;27.91;nan;100654.78;5030293;28;20108;-70
2022/07/14 07:10:49;;;;;;;3.38;1.75;;;;;;;27.84;nan;100654.19;5029258;28;20033;-70
2022/07/14 07:13:15;;;;;;;6.75;1.80;;;;;;;27.68;nan;100648.66;5028751;28;20509;-70
2022/07/14 07:15:40;;;;;;;5.95;1.90;;;;;;;27.37;nan;100647.66;5030315;28;20034;-69
2022/07/14 07:18:06;;;;;;;2.35;1.45;;;;;;;27.05;nan;100656.59;5029824;28;20123;-70
2022/07/14 07:20:34;;;;;;;2.83;1.70;;;;;;;27.07;nan;100648.19;5030089;28;20057;-69
2022/07/14 07:23:00;;;;;;;3.22;1.60;;;;;;;27.68;nan;100645.94;5029949;28;20041;-70
2022/07/14 07:25:26;;;;;;;4.47;1.90;;;;;;;28.65;nan;100647.44;5030722;28;20041;-70
2022/07/14 07:27:51;;;;;;;3.13;1.40;;;;;;;29.41;nan;100643.94;5033455;28;20488;-70
2022/07/14 07:30:17;;;;;;;3.78;1.60;;;;;;;29.64;nan;100651.53;5029643;28;20037;-69
2022/07/14 07:32:42;;;;;;;3.47;1.80;;;;;;;29.54;nan;100650.75;5030938;28;20037;-69
2022/07/14 07:35:08;;;;;;;3.15;1.67;;;;;;;29.51;nan;100645.84;5014831;28;20045;-69
2022/07/14 07:37:33;;;;;;;3.30;1.60;;;;;;;29.24;nan;100648.88;5029583;28;20030;-69
2022/07/14 07:40:00;;;;;;;2.92;1.95;;;;;;;29.10;nan;100651.31;5030083;28;20030;-70
2022/07/14 07:42:26;;;;;;;2.38;1.55;;;;;;;28.93;nan;100636.03;5030694;28;20037;-70
2022/07/14 07:44:51;;;;;;;4.72;2.38;;;;;;;28.86;nan;100631.97;5029643;28;20034;-69
2022/07/14 07:47:16;;;;;;;3.00;1.80;;;;;;;28.80;nan;100631.16;5029280;28;20489;-69
2022/07/14 07:49:42;;;;;;;2.75;1.80;;;;;;;28.92;nan;100630.88;5028867;28;20052;-69
2022/07/14 07:52:07;;;;;;;2.65;1.45;;;;;;;29.04;nan;100625.19;5030384;28;20056;-70
2022/07/14 07:54:33;;;;;;;3.90;1.85;;;;;;;29.08;nan;100629.84;5041061;28;20037;-69
2022/07/14 07:56:59;;;;;;;5.30;1.80;;;;;;;29.24;nan;100630.63;5039057;28;20429;-69
2022/07/14 07:59:25;;;;;;;4.70;1.88;;;;;;;29.49;nan;100628.97;5026651;28;20030;-70
2022/07/14 08:01:50;;;;;;;3.03;1.65;;;;;;;29.58;nan;100627.28;5035336;28;20041;-69
2022/07/14 08:04:16;;;;;;;4.38;2.05;;;;;;;29.60;nan;100625.94;5036041;28;20837;-69
2022/07/14 08:06:41;;;;;;;4.13;2.42;;;;;;;29.56;nan;100630.31;5031862;28;20034;-69
2022/07/14 08:09:11;;;;;;;4.18;2.08;;;;;;;29.82;nan;100625.63;5031025;28;20022;-70
2022/07/14 08:11:41;;;;;;;3.85;1.60;;;;;;;30.45;nan;100635.19;5028087;28;20040;-70
2022/07/14 08:16:55;;;;;;;4.65;1.88;;;;;;;32.10;nan;100597.84;5023280;28;20045;-71
2022/07/14 08:19:20;;;;;;;3.95;1.70;;;;;;;32.82;nan;100623.38;5013536;28;20068;-70
2022/07/14 08:21:46;;;;;;;4.30;1.90;;;;;;;33.16;nan;100621.19;5030781;28;20080;-70
2022/07/14 08:24:11;;;;;;;4.10;2.40;;;;;;;33.41;nan;100610.88;5027286;28;20053;-70
2022/07/14 08:26:37;;;;;;;3.50;1.98;;;;;;;33.76;nan;100612.13;5029770;28;20041;-71
2022/07/14 08:29:02;;;;;;;6.50;2.33;;;;;;;34.33;nan;100608.22;5028281;28;20080;-70
2022/07/14 08:31:27;;;;;;;4.38;2.10;;;;;;;34.59;nan;100611.97;5029182;28;20284;-70
2022/07/14 08:33:53;;;;;;;4.32;1.85;;;;;;;34.81;nan;100608.44;5028880;28;20060;-71
2022/07/14 08:36:18;;;;;;;5.07;2.30;;;;;;;35.04;nan;100609.25;5027697;28;20405;-70
2022/07/14 08:38:43;;;;;;;6.20;2.15;;;;;;;35.73;nan;100605.19;5028720;28;20037;-71
2022/07/14 08:41:10;;;;;;;4.15;1.90;;;;;;;36.14;nan;100602.09;5028118;28;20053;-70
2022/07/14 08:43:37;;;;;;;5.32;2.20;;;;;;;36.02;nan;100595.53;5030755;28;20100;-71
2022/07/14 08:46:04;;;;;;;5.05;1.90;;;;;;;36.41;nan;100597.38;5012597;28;20029;-71
2022/07/14 08:48:30;;;;;;;3.30;1.90;;;;;;;36.74;nan;100596.91;5028016;28;20041;-71
2022/07/14 08:50:57;;;;;;;4.55;2.10;;;;;;;36.72;nan;100596.41;5027210;28;20374;-71
2022/07/14 08:53:23;;;;;;;2.33;1.60;;;;;;;37.43;nan;100595.91;5013089;28;20091;-71
2022/07/14 08:55:49;;;;;;;2.75;1.70;;;;;;;38.07;nan;100591.34;5027807;28;20038;-71
2022/07/14 08:58:15;;;;;;;4.60;2.17;;;;;;;37.73;nan;100584.88;5028507;28;20033;-71
2022/07/14 09:00:40;;;;;;;4.97;2.20;;;;;;;37.18;nan;100583.84;5028716;28;20049;-71
2022/07/14 09:03:05;;;;;;;4.45;2.20;;;;;;;37.83;nan;100587.28;5021298;28;20049;-71
2022/07/14 09:05:31;;;;;;;3.85;2.00;;;;;;;38.02;nan;100590.44;5010208;28;20566;-71
2022/07/14 09:07:57;;;;;;;4.70;2.00;;;;;;;38.28;nan;100594.13;5027028;28;20029;-71
2022/07/14 09:10:27;;;;;;;4.05;1.90;;;;;;;38.30;nan;100586.31;5026996;28;20159;-71
2022/07/14 09:13:12;;;;;;;3.92;2.10;;;;;;;37.83;nan;100590.03;5013522;28;20026;-71
2022/07/14 09:15:45;;;;;;;3.03;1.63;;;;;;;37.47;nan;100580.31;5026569;28;20077;-71
2022/07/14 09:18:25;;;;;;;3.80;1.88;;;;;;;38.02;nan;100576.63;5026770;28;20037;-71
2022/07/14 09:20:54;;;;;;;5.20;1.70;;;;;;;39.05;nan;100581.53;5026524;28;20134;-72
2022/07/14 09:23:30;;;;;;;4.32;1.63;;;;;;;39.90;nan;100570.81;5012349;28;20037;-71
2022/07/14 09:26:14;;;;;;;5.00;2.00;;;;;;;40.51;nan;100565.09;5024313;28;20049;-71
2022/07/14 09:28:42;;;;;;;3.83;1.88;;;;;;;41.09;nan;100564.63;5024506;28;20120;-71
2022/07/14 09:31:22;;;;;;;3.53;1.90;;;;;;;41.61;nan;100570.28;5009926;28;20105;-68
2022/07/14 09:33:59;;;;;;;3.08;1.95;;;;;;;41.86;nan;100573.59;5030272;28;20042;-71
2022/07/14 09:36:26;;;;;;;3.03;1.85;;;;;;;42.17;nan;100567.97;5027016;28;20425;-71
2022/07/14 09:38:51;;;;;;;4.05;1.70;;;;;;;42.22;nan;100558.53;5025950;28;20399;-71
2022/07/14 09:41:17;;;;;;;2.05;1.30;;;;;;;42.32;nan;100555.16;5030256;28;20034;-69
2022/07/14 09:44:05;;;;;;;4.03;1.50;;;;;;;42.74;nan;100548.00;5029022;28;20041;-70
2022/07/14 09:46:51;;;;;;;2.65;1.77;;;;;;;42.88;nan;100550.25;5024604;28;20279;-69
2022/07/14 09:49:18;;;;;;;3.08;1.23;;;;;;;43.09;nan;100556.19;5014861;28;20509;-69
2022/07/14 09:52:01;;;;;;;4.78;1.80;;;;;;;42.50;nan;100549.94;5027630;28;20075;-70
2022/07/14 09:54:39;;;;;;;6.05;1.50;;;;;;;42.66;nan;100544.28;5028661;28;20656;-70
2022/07/14 09:57:18;;;;;;;2.05;1.20;;;;;;;43.39;nan;100547.13;5024409;28;20445;-70
2022/07/14 09:59:44;;;;;;;4.63;2.25;;;;;;;43.29;nan;100545.81;5027303;28;20037;-69
2022/07/14 10:02:21;;;;;;;2.58;1.40;;;;;;;42.46;nan;100543.53;5026136;28;20038;-71
2022/07/14 10:04:48;;;;;;;1.77;1.00;;;;;;;42.34;nan;100535.34;5026181;28;20046;-70
2022/07/14 10:07:15;;;;;;;2.42;1.10;;;;;;;42.01;nan;100542.22;5026100;28;20040;-69
2022/07/14 10:09:46;;;;;;;2.25;1.30;;;;;;;41.62;nan;100544.94;5026348;28;20531;-69
2022/07/14 10:12:12;;;;;;;3.47;1.35;;;;;;;41.91;nan;100548.34;5026564;28;20092;-69
2022/07/14 10:14:38;;;;;;;2.63;1.30;;;;;;;41.84;nan;100535.09;5028594;28;20104;-69
2022/07/14 10:17:03;;;;;;;2.00;1.10;;;;;;;41.76;nan;100536.94;5025518;28;20032;-70
2022/07/14 10:19:29;;;;;;;3.22;1.23;;;;;;;40.71;nan;100535.56;5026304;28;20045;-69
2022/07/14 10:21:58;;;;;;;3.88;1.50;;;;;;;39.57;nan;100540.53;5023254;28;20109;-68
2022/07/14 10:24:25;;;;;;;4.15;1.60;;;;;;;38.87;nan;100531.13;5012026;28;20043;-69
2022/07/14 10:26:52;;;;;;;2.50;1.30;;;;;;;39.99;nan;100535.50;5012837;28;20037;-70
2022/07/14 10:29:19;;;;;;;2.67;1.40;;;;;;;40.46;nan;100534.88;5027204;28;20045;-70
2022/07/14 10:32:29;;;;;;;2.60;1.60;;;;;;;40.58;nan;100530.44;5037550;28;20036;-70
2022/07/14 10:35:10;;;;;;;3.17;1.40;;;;;;;41.24;nan;100526.19;5028738;28;20400;-70
2022/07/14 10:38:13;;;;;;;2.72;1.42;;;;;;;40.58;nan;100524.88;5033764;28;20056;-70
2022/07/14 10:41:03;;;;;;;3.25;1.40;;;;;;;39.24;nan;100522.09;5031970;28;20045;-70
2022/07/14 10:43:41;;;;;;;;;;;;;;;38.20;nan;100518.47;5031315;28;20038;-71
2022/07/14 10:46:07;;;;;;;2.88;1.60;;;;;;;38.75;nan;100511.75;5034044;28;19974;-70
2022/07/14 10:48:35;;;;;;;2.92;1.58;;;;;;;38.25;nan;100510.78;5031088;28;20076;-68
2022/07/14 10:51:21;;;;;;;2.95;1.50;;;;;;;37.28;nan;100509.03;5030664;28;21837;-68
2022/07/14 10:54:06;;;;;;;3.70;1.60;;;;;;;36.02;nan;100505.53;5032014;28;20080;-68
2022/07/14 10:56:33;;;;;;;2.97;1.35;;;;;;;35.44;nan;100501.22;5030234;28;20676;-68
2022/07/14 10:59:26;;;;;;;3.45;1.45;;;;;;;34.81;nan;100506.00;5031687;28;20513;-68
2022/07/14 11:02:17;;;;;;;2.15;1.40;;;;;;;34.99;nan;100493.97;5024819;28;20041;-68
2022/07/14 11:04:58;;;;;;;3.50;1.70;;;;;;;34.45;nan;100485.72;5016778;28;20037;-67
2022/07/14 11:07:38;;;;;;;4.55;1.58;;;;;;;34.09;nan;100487.72;5031711;28;20037;-68
2022/07/14 11:10:25;;;;;;;3.83;1.60;;;;;;;33.98;nan;100482.44;5030302;28;20043;-68
2022/07/14 11:13:00;;;;;;;2.95;1.60;;;;;;;33.83;nan;100480.06;5030072;28;20037;-67
2022/07/14 11:15:43;;;;;;;3.47;1.40;;;;;;;34.19;nan;100476.50;5029632;28;20044;-68
2022/07/14 11:18:17;;;;;;;2.33;1.67;;;;;;;34.40;nan;100480.34;5029426;28;20042;-68
2022/07/14 11:20:51;;;;;;;3.72;1.80;;;;;;;34.24;nan;100482.66;5031167;28;20041;-68
2022/07/14 11:23:22;;;;;;;3.90;1.52;;;;;;;34.58;nan;100475.75;5031145;28;20030;-68
2022/07/14 11:25:50;;;;;;;2.47;1.48;;;;;;;34.67;nan;100482.16;5031843;28;20041;-70
2022/07/14 11:28:37;;;;;;;2.58;1.50;;;;;;;34.37;nan;100485.66;5031271;28;20033;-69
2022/07/14 11:31:12;;;;;;;3.40;1.50;;;;;;;34.40;nan;100483.09;5027923;28;20048;-68
2022/07/14 11:36:25;;;;;;;3.03;1.60;;;;;;;37.60;nan;100470.88;5031630;28;20071;-69
2022/07/14 11:39:20;;;;;;;3.72;1.70;;;;;;;38.17;nan;100473.03;5029746;28;20506;-68
2022/07/14 11:42:08;;;;;;;3.17;1.50;;;;;;;38.55;nan;100468.44;5030520;28;20065;-69
2022/07/14 11:44:33;;;;;;;2.70;1.70;;;;;;;40.54;nan;100470.13;5029853;28;20037;-69
2022/07/14 11:47:00;;;;;;;3.27;1.63;;;;;;;42.17;nan;100470.72;5031361;28;20037;-69
2022/07/14 11:49:26;;;;;;;2.38;1.60;;;;;;;42.62;nan;100477.50;5029152;28;20088;-69
2022/07/14 11:51:53;;;;;;;3.00;1.55;;;;;;;43.24;nan;100473.72;5015991;28;20041;-69
2022/07/14 11:54:21;;;;;;;2.53;1.48;;;;;;;44.05;nan;100476.03;5031367;28;20510;-69
2022/07/14 11:56:46;;;;;;;2.78;1.30;;;;;;;43.66;nan;100470.75;5031612;28;20137;-68
2022/07/14 11:59:17;;;;;;;2.05;1.45;;;;;;;44.26;nan;100457.91;5034663;28;20119;-69
2022/07/14 12:01:44;;;;;;;6.80;1.60;;;;;;;44.65;nan;100454.72;5028060;28;20029;-69